CMA CGM Musca — 2CAC8 — position and weather

sailwx.info

Track history (hours):
 
Tides and Currents Weather Stations Pressure Air Temp Water Temp Dewpoint Dewpoint Depression Visibility Wind Speed Wind Dir Waves Ship Positions

CMA CGM Musca

Last reported at 2015-Apr-11 14:30 UTC. Time now 2015-Apr-19 07:58 UTC.
Position N 02°14' E 101°57'.

Length 347 m; draft 13.7 m.

Type: Ship (hazmat cat A). MMSI: 235070914.

Date/timePositionNaut miles runAvg speedWind from/ knotsBaromVisibWave heightAir tempDewpointWater temp
2015-Apr-11 14:30N 02°14' E 101°57'2020.9
2015-Apr-11 13:32N 02°01' E 102°12'2221.6
2015-Apr-11 12:31N 01°49' E 102°31'2222.4
2015-Apr-11 11:32N 01°41' E 102°52'2321.6
2015-Apr-11 10:29N 01°28' E 103°10'3920.1
2015-Apr-11 08:33N 01°08' E 103°44'2222.1
2015-Apr-11 07:33N 01°16' E 104°04'  
2015-Apr-08 15:05N 21°56' E 114°21'1321.3
2015-Apr-08 14:29N 22°07' E 114°27'2914.0
2015-Apr-08 12:26N 22°34' E 114°18'0 0.0
2015-Apr-07 20:21N 22°34' E 114°18'22 7.9
2015-Apr-07 17:32N 22°19' E 114°35'12620.5
2015-Apr-07 11:24N 22°50' E 116°47'1821.6
2015-Apr-07 10:33N 22°59' E 117°05'2921.8
2015-Apr-07 09:13N 23°13' E 117°33'4322.3
2015-Apr-07 07:17N 23°39' E 118°10'1622.3
2015-Apr-07 06:33N 23°51' E 118°22'4522.6
2015-Apr-07 04:32N 24°24' E 118°57'2222.2
2015-Apr-07 03:33N 24°39' E 119°14'2221.8
2015-Apr-07 02:33N 24°55' E 119°31'2121.6
2015-Apr-07 01:33N 25°10' E 119°48'30721.5
2015-Apr-06 11:14N 29°27' E 122°58'5921.2
2015-Apr-06 08:26N 30°26' E 122°49'2020.4
2015-Apr-06 07:27N 30°31' E 122°27'1314.8
2015-Apr-06 06:33N 30°33' E 122°11'7 3.4
2015-Apr-06 04:30N 30°37' E 122°04'0 0.0
2015-Apr-06 03:12N 30°37' E 122°04'0 0.0
2015-Apr-06 02:29N 30°37' E 122°04'0 0.0
2015-Apr-06 01:05N 30°37' E 122°04'0 0.0
2015-Apr-06 00:22N 30°37' E 122°04'0 0.0
2015-Apr-05 23:28N 30°37' E 122°04'0 0.0
2015-Apr-05 22:21N 30°37' E 122°04'0 0.0
2015-Apr-05 21:27N 30°37' E 122°04'0 0.0
2015-Apr-05 20:21N 30°37' E 122°04'0 0.0
2015-Apr-05 19:26N 30°37' E 122°04'0 0.0
2015-Apr-05 15:17N 30°37' E 122°04'0 0.0
2015-Apr-05 11:07N 30°37' E 122°04'0 0.0
2015-Apr-05 10:25N 30°37' E 122°04'0 0.0
2015-Apr-05 09:24N 30°37' E 122°04'1 0.7
2015-Apr-05 08:32N 30°36' E 122°04'8 8.4
2015-Apr-05 07:33N 30°33' E 122°13'1111.1
2015-Apr-05 06:33N 30°33' E 122°26'1817.9
2015-Apr-05 05:33N 30°34' E 122°47'6215.0
2015-Apr-05 01:25N 31°30' E 123°17'28118.9
2015-Apr-04 10:33N 35°44' E 120°51'1918.7
2015-Apr-04 09:33N 35°58' E 120°36'1515.3
2015-Apr-04 08:33N 36°02' E 120°18'4 3.6
2015-Apr-04 07:18N 36°01' E 120°12'0 0.1
2015-Apr-04 06:24N 36°01' E 120°12'0 0.1
2015-Apr-04 05:30N 36°01' E 120°12'0 0.0
2015-Apr-04 04:29N 36°01' E 120°12'0 0.0
2015-Apr-04 03:17N 36°01' E 120°12'0 0.0
2015-Apr-04 02:28N 36°01' E 120°12'0 0.0
2015-Apr-04 01:28N 36°01' E 120°12'0 0.0
2015-Apr-04 00:21N 36°01' E 120°12'0 0.0
2015-Apr-03 23:33N 36°01' E 120°12'0 0.0
2015-Apr-03 22:21N 36°01' E 120°12'0 0.0
2015-Apr-03 21:31N 36°01' E 120°12'0 0.0
2015-Apr-03 20:24N 36°01' E 120°12'0 0.0
2015-Apr-03 19:30N 36°01' E 120°12'0 0.0
2015-Apr-03 18:29N 36°01' E 120°12'0 0.0
2015-Apr-03 17:29N 36°01' E 120°12'0 0.0
2015-Apr-03 16:29N 36°01' E 120°12'0 0.0
2015-Apr-03 15:28N 36°01' E 120°12'0 0.0
2015-Apr-03 14:28N 36°01' E 120°12'0 0.0
2015-Apr-03 12:20N 36°01' E 120°12'3 3.8
2015-Apr-03 11:33N 36°02' E 120°16'10 9.8
2015-Apr-03 10:33N 36°00' E 120°27'1615.7
2015-Apr-03 09:31N 35°56' E 120°47'  
Track history (hours):
 
Tides and Currents Weather Stations Pressure Air Temp Water Temp Dewpoint Dewpoint Depression Visibility Wind Speed Wind Dir Waves Ship Positions

CMA CGM Musca

Last reported at 2015-Apr-11 14:30 UTC. Time now 2015-Apr-19 07:58 UTC.
Position N 02°14' E 101°57'.

Length 347 m; draft 13.7 m.

Type: Ship (hazmat cat A). MMSI: 235070914.

Date/timePositionNaut miles runAvg speedWind from/ knotsBaromVisibWave heightAir tempDewpointWater temp
2015-Apr-11 14:30N 02°14' E 101°57'2020.9
2015-Apr-11 13:32N 02°01' E 102°12'2221.6
2015-Apr-11 12:31N 01°49' E 102°31'2222.4
2015-Apr-11 11:32N 01°41' E 102°52'2321.6
2015-Apr-11 10:29N 01°28' E 103°10'3920.1
2015-Apr-11 08:33N 01°08' E 103°44'2222.1
2015-Apr-11 07:33N 01°16' E 104°04'  
2015-Apr-08 15:05N 21°56' E 114°21'1321.3
2015-Apr-08 14:29N 22°07' E 114°27'2914.0
2015-Apr-08 12:26N 22°34' E 114°18'0 0.0
2015-Apr-07 20:21N 22°34' E 114°18'22 7.9
2015-Apr-07 17:32N 22°19' E 114°35'12620.5
2015-Apr-07 11:24N 22°50' E 116°47'1821.6
2015-Apr-07 10:33N 22°59' E 117°05'2921.8
2015-Apr-07 09:13N 23°13' E 117°33'4322.3
2015-Apr-07 07:17N 23°39' E 118°10'1622.3
2015-Apr-07 06:33N 23°51' E 118°22'4522.6
2015-Apr-07 04:32N 24°24' E 118°57'2222.2
2015-Apr-07 03:33N 24°39' E 119°14'2221.8
2015-Apr-07 02:33N 24°55' E 119°31'2121.6
2015-Apr-07 01:33N 25°10' E 119°48'30721.5
2015-Apr-06 11:14N 29°27' E 122°58'5921.2
2015-Apr-06 08:26N 30°26' E 122°49'2020.4
2015-Apr-06 07:27N 30°31' E 122°27'1314.8
2015-Apr-06 06:33N 30°33' E 122°11'7 3.4
2015-Apr-06 04:30N 30°37' E 122°04'0 0.0
2015-Apr-06 03:12N 30°37' E 122°04'0 0.0
2015-Apr-06 02:29N 30°37' E 122°04'0 0.0
2015-Apr-06 01:05N 30°37' E 122°04'0 0.0
2015-Apr-06 00:22N 30°37' E 122°04'0 0.0
2015-Apr-05 23:28N 30°37' E 122°04'0 0.0
2015-Apr-05 22:21N 30°37' E 122°04'0 0.0
2015-Apr-05 21:27N 30°37' E 122°04'0 0.0
2015-Apr-05 20:21N 30°37' E 122°04'0 0.0
2015-Apr-05 19:26N 30°37' E 122°04'0 0.0
2015-Apr-05 15:17N 30°37' E 122°04'0 0.0
2015-Apr-05 11:07N 30°37' E 122°04'0 0.0
2015-Apr-05 10:25N 30°37' E 122°04'0 0.0
2015-Apr-05 09:24N 30°37' E 122°04'1 0.7
2015-Apr-05 08:32N 30°36' E 122°04'8 8.4
2015-Apr-05 07:33N 30°33' E 122°13'1111.1
2015-Apr-05 06:33N 30°33' E 122°26'1817.9
2015-Apr-05 05:33N 30°34' E 122°47'6215.0
2015-Apr-05 01:25N 31°30' E 123°17'28118.9
2015-Apr-04 10:33N 35°44' E 120°51'1918.7
2015-Apr-04 09:33N 35°58' E 120°36'1515.3
2015-Apr-04 08:33N 36°02' E 120°18'4 3.6
2015-Apr-04 07:18N 36°01' E 120°12'0 0.1
2015-Apr-04 06:24N 36°01' E 120°12'0 0.1
2015-Apr-04 05:30N 36°01' E 120°12'0 0.0
2015-Apr-04 04:29N 36°01' E 120°12'0 0.0
2015-Apr-04 03:17N 36°01' E 120°12'0 0.0
2015-Apr-04 02:28N 36°01' E 120°12'0 0.0
2015-Apr-04 01:28N 36°01' E 120°12'0 0.0
2015-Apr-04 00:21N 36°01' E 120°12'0 0.0
2015-Apr-03 23:33N 36°01' E 120°12'0 0.0
2015-Apr-03 22:21N 36°01' E 120°12'0 0.0
2015-Apr-03 21:31N 36°01' E 120°12'0 0.0
2015-Apr-03 20:24N 36°01' E 120°12'0 0.0
2015-Apr-03 19:30N 36°01' E 120°12'0 0.0
2015-Apr-03 18:29N 36°01' E 120°12'0 0.0
2015-Apr-03 17:29N 36°01' E 120°12'0 0.0
2015-Apr-03 16:29N 36°01' E 120°12'0 0.0
2015-Apr-03 15:28N 36°01' E 120°12'0 0.0
2015-Apr-03 14:28N 36°01' E 120°12'0 0.0
2015-Apr-03 12:20N 36°01' E 120°12'3 3.8
2015-Apr-03 11:33N 36°02' E 120°16'10 9.8
2015-Apr-03 10:33N 36°00' E 120°27'1615.7
2015-Apr-03 09:31N 35°56' E 120°47'  

Dump ship's entire track history